Latest Weather Observations for Padthaway

IDS60801

Issued at 5:31 pm CST Tuesday 20 April 2021 (issued every 10 minutes, with the page automatically refreshed every 10 minutes)

About weather observations | Map of weather stations | Latest weather observations for SA | Other Formats
Station Details ID: 026100 Name: PADTHAWAY SOUTH Lat: -36.65 Lon: 140.52 Height: 37.0 m
Data from the previous 72 hours. | See also: Recent months at Padthaway
Date/Time
CST
Temp
°C
App
Temp
°C
Dew
Point
°C
Rel
Hum
%
Delta-T
°C
Wind Press
QNH
hPa
Press
MSL
hPa
Rain since
9am
mm
Dir  Spd
km/h
Gust
km/h
Spd
kts
Gust
kts
20/05:00pm 13.2 8.2 1.2 44 5.1 SSW 17 26 9 14 - - 0.8
20/04:30pm 13.9 9.5 2.8 47 4.9 SSW 15 28 8 15 - - 0.8
20/04:00pm 14.5 8.7 2.1 43 5.5 SSW 22 33 12 18 - - 0.8
20/03:30pm 14.0 8.0 1.0 41 5.6 SSW 22 35 12 19 - - 0.8
20/03:00pm 15.4 10.3 2.9 43 5.6 SSW 19 30 10 16 - - 0.8
20/02:30pm 15.2 9.5 2.7 43 5.6 SSW 22 39 12 21 - - 0.8
20/02:00pm 14.3 8.7 3.7 49 4.8 SSW 22 35 12 19 - - 0.8
20/01:30pm 14.2 7.5 3.7 49 4.8 SSW 28 37 15 20 - - 0.8
20/01:00pm 14.2 8.5 5.0 54 4.3 SSW 24 35 13 19 - - 0.8
20/12:30pm 14.1 9.4 6.2 59 3.8 SSW 20 32 11 17 - - 0.8
20/12:00pm 13.1 10.3 9.9 81 1.6 SSW 15 22 8 12 - - 0.8
20/11:30am 13.9 10.2 7.9 67 3.0 S 17 24 9 13 - - 0.6
20/11:00am 12.6 9.5 8.7 77 1.9 S 15 20 8 11 - - 0.6
20/10:30am 11.8 9.2 9.4 85 1.2 S 13 19 7 10 - - 0.6
20/10:00am 11.2 8.2 9.3 88 1.0 S 15 22 8 12 - - 0.6
20/09:30am 10.8 7.5 9.4 91 0.7 SSE 17 24 9 13 - - 0.6
20/09:00am 11.7 10.5 11.5 99 0.1 SSW 9 17 5 9 - - 7.6
20/08:30am 11.8 10.6 11.5 98 0.2 SSW 9 11 5 6 - - 5.8
20/08:00am 11.9 11.5 11.1 95 0.4 ESE 4 6 2 3 - - 4.6
20/07:30am 12.0 11.1 11.2 95 0.4 SSW 7 13 4 7 - - 2.4
20/07:00am 11.9 8.3 10.0 88 1.0 W 19 28 10 15 - - 1.4
20/06:30am 12.4 8.8 8.5 77 1.9 NNW 17 24 9 13 - - 0.0
20/06:00am 12.6 8.7 8.5 76 2.0 NNW 19 28 10 15 - - 0.0
20/05:30am 12.9 9.0 8.6 75 2.1 NNW 19 30 10 16 - - 0.0
20/05:00am 12.9 9.0 8.6 75 2.1 NNW 19 28 10 15 - - 0.0
20/04:30am 11.9 8.1 7.6 75 2.1 NNW 17 22 9 12 - - 0.0
20/04:00am 12.4 8.6 7.5 72 2.4 NNW 17 24 9 13 - - 0.0
20/03:30am 12.8 9.0 7.5 70 2.6 NNW 17 24 9 13 - - 0.0
20/03:00am 13.4 9.7 7.8 69 2.8 NNW 17 26 9 14 - - 0.0
20/02:30am 12.8 10.0 8.5 75 2.1 NNW 13 20 7 11 - - 0.0
20/02:00am 12.7 10.0 8.8 77 2.0 NNW 13 17 7 9 - - 0.0
20/01:30am 12.8 10.2 9.4 80 1.7 N 13 19 7 10 - - 0.0
20/01:00am 13.4 10.9 9.8 79 1.9 NNW 13 19 7 10 - - 0.0
20/12:30am 12.8 10.8 10.2 84 1.3 NW 11 17 6 9 - - 0.0
20/12:00am 13.4 11.5 10.6 83 1.5 NNW 11 17 6 9 - - 0.0
 
Date/Time
CST
Temp
°C
App
Temp
°C
Dew
Point
°C
Rel
Hum
%
Delta-T
°C
Wind Press
QNH
hPa
Press
MSL
hPa
Rain since
9am
mm
Dir  Spd
km/h
Gust
km/h
Spd
kts
Gust
kts
19/11:30pm 13.7 11.9 10.9 83 1.5 NNW 11 17 6 9 - - 0.0
19/11:00pm 13.4 12.1 11.1 86 1.2 NNW 9 13 5 7 - - 0.0
19/10:30pm 13.6 12.2 11.0 84 1.4 NNW 9 11 5 6 - - 0.0
19/10:00pm 14.1 12.7 10.9 81 1.7 NNW 9 13 5 7 - - 0.0
19/09:30pm 14.2 12.8 10.8 80 1.8 NNW 9 11 5 6 - - 0.0
19/09:00pm 15.0 13.2 10.8 76 2.2 NNW 11 13 6 7 - - 0.0
19/08:30pm 14.4 13.0 11.0 80 1.8 N 9 11 5 6 - - 0.0
19/08:00pm 14.1 12.6 10.7 80 1.8 NNW 9 11 5 6 - - 0.0
19/07:30pm 14.3 12.8 10.5 78 2.0 N 9 9 5 5 - - 0.0
19/07:00pm 14.3 12.6 9.7 74 2.4 NNW 9 9 5 5 - - 0.0
19/06:30pm 15.8 14.1 9.9 68 3.1 NW 9 13 5 7 - - 0.0
19/06:00pm 16.2 14.1 9.6 65 3.4 NW 11 13 6 7 - - 0.0
19/05:30pm 16.7 13.9 9.9 64 3.6 NW 15 20 8 11 - - 0.0
19/05:00pm 17.2 13.0 9.6 61 4.0 WNW 22 32 12 17 - - 0.0
19/04:30pm 18.1 14.9 8.4 53 5.0 NW 15 22 8 12 - - 0.0
19/04:00pm 17.7 14.6 8.8 56 4.6 WNW 15 22 8 12 - - 0.0
19/03:30pm 18.0 13.7 10.6 62 4.0 W 24 35 13 19 - - 0.0
19/03:00pm 19.0 14.7 7.8 48 5.7 WNW 20 33 11 18 - - 0.0
19/02:30pm 19.1 15.4 7.8 48 5.8 WNW 17 26 9 14 - - 0.0
19/02:00pm 19.4 14.9 6.8 44 6.3 NW 20 33 11 18 - - 0.0
19/01:30pm 19.4 15.2 9.6 53 5.2 NNW 22 30 12 16 - - 0.0
19/01:00pm 18.6 13.3 8.6 52 5.2 NW 26 37 14 20 - - 0.0
19/12:30pm 19.5 15.4 8.5 49 5.7 NW 20 28 11 15 - - 0.0
19/12:00pm 18.9 13.8 10.5 58 4.5 NW 28 46 15 25 - - 0.0
19/11:59am 18.4 13.1 9.7 57 4.6 NW 28 46 15 25 - - 0.0
19/11:30am 18.8 15.4 10.6 59 4.4 NW 19 28 10 15 - - 0.0
19/11:00am 18.1 14.8 11.7 66 3.5 NW 20 32 11 17 - - 0.0
19/10:30am 17.0 13.5 12.3 74 2.6 NNW 22 33 12 18 - - 0.0
19/10:00am 16.3 13.5 12.5 78 2.1 NNW 19 28 10 15 - - 0.0
19/09:30am 15.4 13.0 12.5 83 1.6 NNW 17 24 9 13 - - 0.0
19/09:00am 14.9 12.0 12.2 84 1.5 NNW 19 26 10 14 - - 4.8
19/08:30am 14.4 12.3 12.3 87 1.1 NNW 15 20 8 11 - - 4.8
19/08:00am 13.8 12.4 12.2 90 0.9 NNW 11 17 6 9 - - 4.8
19/07:30am 13.2 11.7 11.9 92 0.7 NNW 11 15 6 8 - - 4.8
19/07:00am 12.8 10.9 11.7 93 0.6 N 13 17 7 9 - - 4.8
19/06:30am 12.5 10.9 11.7 95 0.4 N 11 15 6 8 - - 4.8
19/06:00am 12.4 11.2 11.5 94 0.5 NNW 9 15 5 8 - - 4.8
19/05:30am 12.6 11.5 12.1 97 0.3 N 9 13 5 7 - - 4.8
19/05:00am 12.6 11.2 12.1 97 0.3 NNW 11 15 6 8 - - 4.8
19/04:30am 12.6 11.2 12.1 97 0.3 NNW 11 15 6 8 - - 4.8
19/04:00am 12.5 11.5 12.3 99 0.1 NNW 9 11 5 6 - - 4.8
19/03:30am 12.1 11.6 11.9 99 0.1 N 6 6 3 3 - - 4.8
19/03:00am 12.1 11.6 11.9 99 0.1 N 6 7 3 4 - - 4.8
19/02:30am 12.4 11.9 12.2 99 0.1 N 6 6 3 3 - - 4.8
19/02:00am 12.2 11.5 12.0 99 0.1 NNW 7 9 4 5 - - 4.8
19/01:30am 11.8 11.2 11.6 99 0.1 N 6 7 3 4 - - 4.8
19/01:00am 11.6 10.7 11.4 99 0.1 N 7 9 4 5 - - 4.8
19/12:30am 11.4 10.4 10.9 97 0.3 N 7 9 4 5 - - 4.8
19/12:00am 12.3 11.2 12.1 99 0.1 NNE 9 11 5 6 - - 4.8
 
Date/Time
CST
Temp
°C
App
Temp
°C
Dew
Point
°C
Rel
Hum
%
Delta-T
°C
Wind Press
QNH
hPa
Press
MSL
hPa
Rain since
9am
mm
Dir  Spd
km/h
Gust
km/h
Spd
kts
Gust
kts
18/11:30pm 12.7 12.3 12.5 99 0.1 N 6 7 3 4 - - 4.8
18/11:00pm 12.9 12.4 12.7 99 0.1 N 7 11 4 6 - - 4.8
18/10:30pm 13.0 13.4 12.4 96 0.3 SW 2 7 1 4 - - 4.8
18/10:00pm 13.2 12.0 12.9 98 0.2 WNW 11 15 6 8 - - 4.8
18/09:30pm 13.4 12.3 13.2 99 0.1 NW 11 17 6 9 - - 4.6
18/09:00pm 13.3 12.9 13.1 99 0.1 NNW 7 9 4 5 - - 4.6
18/08:30pm 13.2 12.8 13.0 99 0.1 NNW 7 9 4 5 - - 4.6
18/08:00pm 13.5 13.2 13.3 99 0.1 NNW 7 9 4 5 - - 4.6
18/07:30pm 13.5 12.7 12.9 96 0.3 WNW 9 13 5 7 - - 4.6
18/07:00pm 13.8 13.3 12.7 93 0.6 NW 7 9 4 5 - - 2.8
18/06:30pm 13.8 13.4 12.5 92 0.7 WSW 6 13 3 7 - - 2.8
18/06:00pm 14.3 14.3 13.5 95 0.4 W 6 9 3 5 - - 2.4
18/05:30pm 14.6 13.5 13.0 90 0.9 SW 11 22 6 12 - - 1.8
18/05:00pm 14.8 14.7 13.2 90 0.9 W 6 7 3 4 - - 0.8
18/04:30pm 16.7 14.3 11.4 71 2.9 W 15 20 8 11 - - 0.2
18/04:00pm 16.5 14.4 11.2 71 2.9 WNW 13 19 7 10 - - 0.2
18/03:30pm 15.6 15.1 13.8 89 1.0 WSW 9 13 5 7 - - 0.2
18/03:00pm 16.8 13.9 11.1 69 3.1 WNW 17 22 9 12 - - 0.0
18/02:30pm 17.1 13.5 10.7 66 3.4 W 20 32 11 17 - - 0.0
18/02:00pm 18.4 15.1 9.5 56 4.7 W 17 32 9 17 - - 0.0
18/01:30pm 18.0 15.2 9.9 59 4.3 W 15 22 8 12 - - 0.0
18/01:00pm 18.0 14.5 10.1 60 4.2 WSW 19 28 10 15 - - 0.0
18/12:30pm 18.5 15.2 9.6 56 4.7 WNW 17 24 9 13 - - 0.0
18/12:00pm 18.4 15.4 9.2 55 4.8 WNW 15 22 8 12 - - 0.0
18/11:30am 18.6 16.0 9.4 55 4.8 NW 13 20 7 11 - - 0.0
18/11:00am 17.6 15.0 7.9 53 4.9 WNW 11 17 6 9 - - 0.0
18/10:30am 17.7 15.0 10.3 62 3.9 NNW 15 19 8 10 - - 0.0
18/10:00am 16.1 14.2 11.9 76 2.3 NNW 13 17 7 9 - - 0.0
18/09:30am 15.2 13.7 12.0 81 1.7 NNW 11 15 6 8 - - 0.0
18/09:00am 14.3 13.2 11.8 85 1.3 NW 9 13 5 7 - - 0.2
18/08:30am 13.3 12.2 12.0 92 0.7 NNW 9 11 5 6 - - 0.2
18/08:00am 12.4 11.4 12.2 99 0.1 NNW 9 11 5 6 - - 0.2
18/07:30am 10.4 8.8 10.2 99 0.1 N 9 9 5 5 - - 0.2
18/07:00am 10.2 8.9 10.1 99 0.1 NNW 7 9 4 5 - - 0.2
18/06:30am 10.7 9.6 10.5 99 0.1 NNW 7 7 4 4 - - 0.2
18/06:00am 10.6 10.8 10.4 99 0.1 CALM 0 0 0 0 - - 0.2
18/05:30am 10.7 10.9 10.5 99 0.1 CALM 0 0 0 0 - - 0.2
18/05:00am 11.1 10.1 10.9 99 0.1 NNW 7 9 4 5 - - 0.2
18/04:30am 10.9 9.4 10.7 99 0.1 NNW 9 11 5 6 - - 0.2
18/04:00am 10.5 9.3 10.3 99 0.1 NNW 7 11 4 6 - - 0.2
18/03:30am 9.8 8.4 9.7 99 0.1 N 7 9 4 5 - - 0.2
18/03:00am 9.3 7.4 9.2 99 0.0 NNW 9 11 5 6 - - 0.2
18/02:30am 8.2 6.4 8.1 99 0.0 NNW 7 9 4 5 - - 0.2
18/02:00am 7.5 5.4 6.6 94 0.4 NNW 7 7 4 4 - - 0.2
18/01:30am 7.7 5.5 6.3 91 0.6 NNW 7 7 4 4 - - 0.2
18/01:00am 8.6 6.6 7.2 91 0.7 NNW 7 9 4 5 - - 0.2
18/12:30am 10.4 8.6 9.5 94 0.5 NNW 9 9 5 5 - - 0.2
18/12:00am 12.0 11.2 11.7 98 0.2 NNW 7 9 4 5 - - 0.2
 
Date/Time
CST
Temp
°C
App
Temp
°C
Dew
Point
°C
Rel
Hum
%
Delta-T
°C
Wind Press
QNH
hPa
Press
MSL
hPa
Rain since
9am
mm
Dir  Spd
km/h
Gust
km/h
Spd
kts
Gust
kts
17/11:30pm 12.5 12.1 12.3 99 0.1 NNW 6 7 3 4 - - 0.2
17/11:00pm 12.5 11.9 12.3 99 0.1 NNW 7 9 4 5 - - 0.2
17/10:30pm 11.9 11.3 11.6 98 0.2 N 6 7 3 4 - - 0.2
17/10:00pm 11.7 11.0 11.4 98 0.2 N 6 9 3 5 - - 0.2
17/09:30pm 10.8 9.5 9.9 94 0.5 N 7 9 4 5 - - 0.2
17/09:00pm 11.2 10.1 10.6 96 0.3 N 7 9 4 5 - - 0.2
17/08:30pm 10.9 9.4 10.4 97 0.3 N 9 9 5 5 - - 0.2
17/08:00pm 9.8 7.8 8.7 93 0.5 N 9 11 5 6 - - 0.2
17/07:30pm 9.7 7.9 8.0 89 0.8 NNW 7 7 4 4 - - 0.2
17/07:00pm 10.6 9.2 8.7 88 0.9 NNW 6 7 3 4 - - 0.2
17/06:30pm 11.5 9.6 9.2 86 1.2 WNW 9 11 5 6 - - 0.2
17/06:00pm 12.6 10.9 9.8 83 1.4 W 9 11 5 6 - - 0.2

Other formats

Comma delimited format used in spreadsheet applications
http://www.bom.gov.au/fwo/IDS60801/IDS60801.95823.axf

JavaScript Object Notation format (JSON) in row-major order
http://www.bom.gov.au/fwo/IDS60801/IDS60801.95823.json

Data quality

Most of these data are generated automatically and are frequently updated. Quality checks on data are not normally performed. It is possible for incorrect values to appear. Refer to information at About Latest Weather Observations and please check the disclaimer before using these data.